createdAt,value
2022-12-01T00:01:12.650Z,100.00
2022-12-01T00:03:39.796Z,100.00
2022-12-01T00:06:10.327Z,100.00
2022-12-01T00:08:37.407Z,100.00
2022-12-01T00:11:08.491Z,100.00
2022-12-01T00:13:35.474Z,100.00
2022-12-01T00:16:16.369Z,100.00
2022-12-01T00:18:43.264Z,100.00
2022-12-01T00:21:17.870Z,100.00
2022-12-01T00:23:47.280Z,100.00
2022-12-01T00:26:14.531Z,100.00
2022-12-01T00:28:41.008Z,100.00
2022-12-01T00:31:09.160Z,100.00
2022-12-01T00:33:35.818Z,100.00
2022-12-01T00:36:02.659Z,100.00
2022-12-01T00:38:29.515Z,100.00
2022-12-01T00:40:56.209Z,100.00
2022-12-01T00:43:22.842Z,100.00
2022-12-01T00:45:49.379Z,100.00
2022-12-01T00:48:16.021Z,100.00
2022-12-01T00:50:43.043Z,100.00
2022-12-01T00:53:09.998Z,100.00
2022-12-01T00:55:36.495Z,100.00
2022-12-01T00:58:03.090Z,100.00
2022-12-01T01:00:29.557Z,100.00
2022-12-01T01:02:56.104Z,100.00
2022-12-01T01:05:23.338Z,100.00
2022-12-01T01:07:49.966Z,100.00
2022-12-01T01:10:16.571Z,100.00
2022-12-01T01:12:43.105Z,100.00
2022-12-01T01:15:10.072Z,100.00
2022-12-01T01:17:36.668Z,100.00
2022-12-01T01:20:06.960Z,100.00
2022-12-01T01:22:35.400Z,100.00
2022-12-01T01:25:02.014Z,100.00
2022-12-01T01:27:28.491Z,100.00
2022-12-01T01:29:54.934Z,100.00
2022-12-01T01:32:21.467Z,100.00
2022-12-01T01:34:47.970Z,100.00
2022-12-01T01:37:14.482Z,100.00
2022-12-01T01:39:40.934Z,100.00
2022-12-01T01:42:12.626Z,100.00
2022-12-01T01:44:56.314Z,100.00
2022-12-01T01:47:31.883Z,100.00
2022-12-01T01:50:06.207Z,100.00
2022-12-01T01:52:36.410Z,100.00
2022-12-01T01:55:03.482Z,100.00
2022-12-01T01:57:33.296Z,100.00
2022-12-01T02:00:27.246Z,100.00
2022-12-01T02:02:54.263Z,100.00
2022-12-01T02:05:26.426Z,100.00
2022-12-01T02:07:57.069Z,100.00
2022-12-01T02:11:24.052Z,100.00
2022-12-01T02:13:54.124Z,100.00
2022-12-01T02:16:35.189Z,100.00
2022-12-01T02:19:14.914Z,100.00
2022-12-01T02:22:15.313Z,100.00
2022-12-01T02:25:00.641Z,100.00
2022-12-01T02:27:53.669Z,100.00
2022-12-01T02:30:41.065Z,100.00
2022-12-01T02:33:53.565Z,100.00
2022-12-01T02:36:56.731Z,100.00
2022-12-01T02:39:35.670Z,100.00
2022-12-01T02:42:10.505Z,100.00
2022-12-01T02:44:44.554Z,100.00
2022-12-01T02:47:19.501Z,100.00
2022-12-01T02:49:52.723Z,100.00
2022-12-01T02:52:22.430Z,100.00
2022-12-01T02:54:49.346Z,100.00
2022-12-01T02:57:16.887Z,100.00
2022-12-01T02:59:47.598Z,100.00
2022-12-01T03:02:24.501Z,100.00
2022-12-01T03:05:34.190Z,100.00
2022-12-01T03:08:13.725Z,100.00
2022-12-01T03:10:54.717Z,100.00
2022-12-01T03:13:46.573Z,100.00
2022-12-01T03:16:33.377Z,100.00
2022-12-01T03:19:08.241Z,100.00
2022-12-01T03:21:54.911Z,100.00
2022-12-01T03:24:26.240Z,100.00
2022-12-01T03:26:57.340Z,100.00
2022-12-01T03:29:30.732Z,100.00
2022-12-01T03:32:03.249Z,100.00
2022-12-01T03:34:50.033Z,100.00
2022-12-01T03:37:26.231Z,100.00
2022-12-01T03:40:00.215Z,100.00
2022-12-01T03:42:41.862Z,100.00
2022-12-01T03:45:24.165Z,100.00
2022-12-01T03:47:51.627Z,100.00
2022-12-01T03:50:18.668Z,100.00
2022-12-01T03:53:20.132Z,100.00
2022-12-01T03:55:54.124Z,100.00
2022-12-01T03:58:27.330Z,100.00
2022-12-01T04:00:57.621Z,100.00
2022-12-01T04:03:25.910Z,100.00
2022-12-01T04:05:52.521Z,100.00
2022-12-01T04:08:19.037Z,100.00
2022-12-01T04:10:45.590Z,100.00
2022-12-01T04:13:22.073Z,100.00
2022-12-01T04:15:53.648Z,100.00
2022-12-01T04:18:20.811Z,100.00
2022-12-01T04:20:49.316Z,100.00
2022-12-01T04:23:36.313Z,100.00
2022-12-01T04:26:04.953Z,100.00
2022-12-01T04:28:31.741Z,100.00
2022-12-01T04:30:58.311Z,100.00
2022-12-01T04:33:24.919Z,100.00
2022-12-01T04:35:59.641Z,100.00
2022-12-01T04:38:30.649Z,100.00
2022-12-01T04:40:57.433Z,100.00
2022-12-01T04:43:23.869Z,100.00
2022-12-01T04:45:50.347Z,100.00
2022-12-01T04:48:17.065Z,100.00
2022-12-01T04:50:43.594Z,100.00
2022-12-01T04:53:10.067Z,100.00
2022-12-01T04:55:38.991Z,100.00
2022-12-01T04:58:05.874Z,100.00
2022-12-01T05:00:33.013Z,100.00
2022-12-01T05:03:00.493Z,100.00
2022-12-01T05:05:27.114Z,100.00
2022-12-01T05:07:53.721Z,100.00
2022-12-01T05:10:20.561Z,100.00
2022-12-01T05:12:47.289Z,100.00
2022-12-01T05:15:13.988Z,100.00
2022-12-01T05:17:40.486Z,100.00
2022-12-01T05:20:36.826Z,100.00
2022-12-01T05:23:05.991Z,100.00
2022-12-01T05:25:33.451Z,100.00
2022-12-01T05:28:00.093Z,100.00
2022-12-01T05:30:28.702Z,100.00
2022-12-01T05:32:55.653Z,100.00
2022-12-01T05:35:22.198Z,100.00
2022-12-01T05:37:48.868Z,100.00
2022-12-01T05:40:15.381Z,100.00
2022-12-01T05:42:41.888Z,100.00
2022-12-01T05:45:08.724Z,100.00
2022-12-01T05:47:35.200Z,100.00
2022-12-01T05:50:05.434Z,100.00
2022-12-01T05:52:35.146Z,100.00
2022-12-01T05:55:02.995Z,100.00
2022-12-01T05:57:29.820Z,100.00
2022-12-01T05:59:56.363Z,100.00
2022-12-01T06:02:23.251Z,100.00
2022-12-01T06:04:49.772Z,100.00
2022-12-01T06:07:16.275Z,100.00
2022-12-01T06:09:42.758Z,100.00
2022-12-01T06:12:09.196Z,100.00
2022-12-01T06:14:35.720Z,100.00
2022-12-01T06:17:02.348Z,100.00
2022-12-01T06:19:28.849Z,100.00
2022-12-01T06:21:55.327Z,100.00
2022-12-01T06:24:21.789Z,100.00
2022-12-01T06:26:48.273Z,100.00
2022-12-01T06:29:14.812Z,100.00
2022-12-01T06:31:42.159Z,100.00
2022-12-01T06:34:09.041Z,100.00
2022-12-01T06:36:35.526Z,100.00
2022-12-01T06:39:02.122Z,100.00
2022-12-01T06:41:28.595Z,100.00
2022-12-01T06:43:55.124Z,100.00
2022-12-01T06:46:21.617Z,100.00
2022-12-01T06:48:49.223Z,100.00
2022-12-01T06:51:15.740Z,100.00
2022-12-01T06:53:42.217Z,100.00
2022-12-01T06:56:08.744Z,100.00
2022-12-01T06:58:42.188Z,100.00
2022-12-01T07:01:12.582Z,100.00
2022-12-01T07:03:40.018Z,100.00
2022-12-01T07:06:06.666Z,100.00
2022-12-01T07:08:33.325Z,100.00
2022-12-01T07:11:01.760Z,100.00
2022-12-01T07:13:33.345Z,100.00
2022-12-01T07:16:01.895Z,100.00
2022-12-01T07:18:29.335Z,100.00
2022-12-01T07:21:04.522Z,100.00
2022-12-01T07:23:31.339Z,100.00
2022-12-01T07:26:06.976Z,100.00
2022-12-01T07:28:33.919Z,100.00
2022-12-01T07:31:11.942Z,100.00
2022-12-01T07:33:39.334Z,100.00
2022-12-01T07:36:06.753Z,100.00
2022-12-01T07:38:34.320Z,100.00
2022-12-01T07:41:09.644Z,100.00
2022-12-01T07:43:36.856Z,100.00
2022-12-01T07:46:23.727Z,100.00
2022-12-01T07:48:51.613Z,100.00
2022-12-01T07:51:18.970Z,100.00
2022-12-01T07:53:47.554Z,100.00
2022-12-01T07:56:14.012Z,100.00
2022-12-01T07:58:41.305Z,100.00
2022-12-01T08:01:11.824Z,100.00
2022-12-01T08:03:39.134Z,100.00
2022-12-01T08:06:06.778Z,100.00
2022-12-01T08:08:35.258Z,100.00
2022-12-01T08:11:04.667Z,100.00
2022-12-01T08:13:31.519Z,100.00
2022-12-01T08:15:58.189Z,100.00
2022-12-01T08:18:24.933Z,100.00
2022-12-01T08:20:52.001Z,100.00
2022-12-01T08:23:18.512Z,100.00
2022-12-01T08:25:45.017Z,100.00
2022-12-01T08:28:11.561Z,100.00
2022-12-01T08:30:38.048Z,100.00
2022-12-01T08:33:04.576Z,100.00
2022-12-01T08:35:31.068Z,100.00
2022-12-01T08:37:57.541Z,100.00
2022-12-01T08:40:24.204Z,100.00
2022-12-01T08:42:52.743Z,100.00
2022-12-01T08:45:19.870Z,100.00
2022-12-01T08:47:47.515Z,100.00
2022-12-01T08:50:14.222Z,100.00
2022-12-01T08:52:40.770Z,100.00
2022-12-01T08:55:08.196Z,100.00
2022-12-01T08:57:34.750Z,100.00
2022-12-01T09:00:01.347Z,100.00
2022-12-01T09:02:28.053Z,100.00
2022-12-01T09:04:55.706Z,100.00
2022-12-01T09:07:26.384Z,100.00
2022-12-01T09:09:53.447Z,100.00
2022-12-01T09:12:19.971Z,100.00
2022-12-01T09:14:48.490Z,100.00
2022-12-01T09:17:16.715Z,100.00
2022-12-01T09:19:43.865Z,100.00
2022-12-01T09:22:11.781Z,100.00
2022-12-01T09:24:38.442Z,100.00
2022-12-01T09:27:05.156Z,100.00
2022-12-01T09:29:32.433Z,100.00
2022-12-01T09:32:00.480Z,100.00
2022-12-01T09:34:28.051Z,100.00
2022-12-01T09:36:56.799Z,100.00
2022-12-01T09:39:23.541Z,100.00
2022-12-01T09:41:52.021Z,100.00
2022-12-01T09:44:40.768Z,100.00
2022-12-01T09:47:19.539Z,100.00
2022-12-01T09:49:55.409Z,100.00
2022-12-01T09:52:24.152Z,100.00
2022-12-01T09:54:52.229Z,100.00
2022-12-01T09:57:36.743Z,100.00
2022-12-01T10:00:13.321Z,100.00
2022-12-01T10:02:44.412Z,100.00
2022-12-01T10:05:16.232Z,100.00
2022-12-01T10:07:52.671Z,99.97
2022-12-01T10:10:28.658Z,99.85
2022-12-01T10:12:55.278Z,100.00
2022-12-01T10:15:39.808Z,100.00
2022-12-01T10:18:35.484Z,99.92
2022-12-01T10:21:04.954Z,99.70
2022-12-01T10:23:55.020Z,99.90
2022-12-01T10:26:28.880Z,99.99
2022-12-01T10:29:26.646Z,99.71
2022-12-01T10:31:59.140Z,99.44
2022-12-01T10:34:30.001Z,99.49
2022-12-01T10:36:56.889Z,99.19
2022-12-01T10:39:37.561Z,98.77
2022-12-01T10:42:13.893Z,98.29
2022-12-01T10:44:41.255Z,97.73
2022-12-01T10:47:34.244Z,97.80
2022-12-01T10:50:03.221Z,97.96
2022-12-01T10:52:41.525Z,97.30
2022-12-01T10:55:23.334Z,97.28
2022-12-01T10:57:50.469Z,97.29
2022-12-01T11:03:23.426Z,97.78
2022-12-01T11:05:55.594Z,97.88
2022-12-01T11:08:30.501Z,98.31
2022-12-01T11:10:57.221Z,97.63
2022-12-01T11:13:29.246Z,97.28
2022-12-01T11:15:58.749Z,97.13
2022-12-01T11:18:31.396Z,97.13
2022-12-01T11:21:15.621Z,96.81
2022-12-01T11:23:50.158Z,97.07
2022-12-01T11:26:17.681Z,97.28
2022-12-01T11:29:25.823Z,96.78
2022-12-01T11:31:53.186Z,97.55
2022-12-01T11:34:24.090Z,97.57
2022-12-01T11:36:51.739Z,97.17
2022-12-01T11:39:28.929Z,97.33
2022-12-01T11:41:57.861Z,97.41
2022-12-01T11:47:24.584Z,97.38
2022-12-01T11:50:03.430Z,96.86
2022-12-01T11:52:46.339Z,96.73
2022-12-01T11:55:12.768Z,97.11
2022-12-01T11:57:42.556Z,97.24
2022-12-01T12:01:01.481Z,96.78
2022-12-01T12:03:41.361Z,97.29
2022-12-01T12:06:38.340Z,97.13
2022-12-01T12:09:03.385Z,97.17
2022-12-01T12:11:38.893Z,97.22
2022-12-01T12:14:20.251Z,97.11
2022-12-01T12:17:11.120Z,97.22
2022-12-01T12:20:16.537Z,97.46
2022-12-01T12:22:55.413Z,97.47
2022-12-01T12:25:38.381Z,97.43
2022-12-01T12:28:31.551Z,97.63
2022-12-01T12:31:04.960Z,97.27
2022-12-01T12:33:46.626Z,97.58
2022-12-01T12:36:27.831Z,97.76
2022-12-01T12:38:57.039Z,97.47
2022-12-01T12:41:44.029Z,96.93
2022-12-01T12:44:37.493Z,96.50
2022-12-01T12:47:19.376Z,96.11
2022-12-01T12:49:52.166Z,95.35
2022-12-01T12:52:25.707Z,93.42
2022-12-01T12:55:01.547Z,93.08
2022-12-01T12:57:37.463Z,91.74
2022-12-01T13:00:04.225Z,91.74
2022-12-01T13:02:40.935Z,91.66
2022-12-01T13:05:24.874Z,91.25
2022-12-01T13:08:08.994Z,91.20
2022-12-01T13:10:58.080Z,91.31
2022-12-01T13:13:27.633Z,90.30
2022-12-01T13:15:56.737Z,89.45
2022-12-01T13:19:09.826Z,89.10
2022-12-01T13:21:42.392Z,90.21
2022-12-01T13:24:16.285Z,90.80
2022-12-01T13:27:09.972Z,91.10
2022-12-01T13:29:46.114Z,90.63
2022-12-01T13:32:43.071Z,90.10
2022-12-01T13:35:27.575Z,90.27
2022-12-01T13:38:13.968Z,89.59
2022-12-01T13:40:40.513Z,90.54
2022-12-01T13:43:17.875Z,90.22
2022-12-01T13:45:44.713Z,90.54
2022-12-01T13:48:48.684Z,90.48
2022-12-01T13:51:15.470Z,91.32
2022-12-01T13:54:26.838Z,90.62
2022-12-01T13:57:05.080Z,90.68
2022-12-01T13:59:40.443Z,89.96
2022-12-01T14:02:16.232Z,90.90
2022-12-01T14:04:42.949Z,90.33
2022-12-01T14:07:34.229Z,89.81
2022-12-01T14:10:22.126Z,90.47
2022-12-01T14:12:50.183Z,90.18
2022-12-01T14:15:32.187Z,90.14
2022-12-01T14:18:06.068Z,90.66
2022-12-01T14:20:37.410Z,90.78
2022-12-01T14:23:15.034Z,90.36
2022-12-01T14:25:43.333Z,89.79
2022-12-01T14:28:16.856Z,89.45
2022-12-01T14:30:46.104Z,89.75
2022-12-01T14:33:44.776Z,89.08
2022-12-01T14:36:21.721Z,88.05
2022-12-01T14:38:54.180Z,88.67
2022-12-01T14:41:30.987Z,88.66
2022-12-01T14:44:16.406Z,88.79
2022-12-01T14:46:49.111Z,88.89
2022-12-01T14:49:23.226Z,88.68
2022-12-01T14:51:54.558Z,88.29
2022-12-01T14:54:30.135Z,88.29
2022-12-01T14:57:05.837Z,89.36
2022-12-01T14:59:33.948Z,88.64
2022-12-01T15:02:08.989Z,89.19
2022-12-01T15:05:10.869Z,88.68
2022-12-01T15:07:43.956Z,88.42
2022-12-01T15:10:39.274Z,89.00
2022-12-01T15:13:22.333Z,88.51
2022-12-01T15:15:59.511Z,89.07
2022-12-01T15:18:35.107Z,89.42
2022-12-01T15:21:08.094Z,89.86
2022-12-01T15:23:34.674Z,90.08
2022-12-01T15:26:01.348Z,90.02
2022-12-01T15:28:33.617Z,89.91
2022-12-01T15:31:01.643Z,90.15
2022-12-01T15:33:37.276Z,90.52
2022-12-01T15:36:04.823Z,90.79
2022-12-01T15:38:34.763Z,90.87
2022-12-01T15:41:32.718Z,90.75
2022-12-01T15:43:57.566Z,90.48
2022-12-01T15:46:34.650Z,90.39
2022-12-01T15:49:29.993Z,90.84
2022-12-01T15:52:11.511Z,90.32
2022-12-01T15:54:38.969Z,91.11
2022-12-01T15:57:06.592Z,91.09
2022-12-01T15:59:39.132Z,91.30
2022-12-01T16:02:27.388Z,91.06
2022-12-01T16:05:08.885Z,90.99
2022-12-01T16:10:41.717Z,90.91
2022-12-01T16:13:36.341Z,91.08
2022-12-01T16:16:27.157Z,91.15
2022-12-01T16:18:58.061Z,91.42
2022-12-01T16:21:25.132Z,91.05
2022-12-01T16:24:03.894Z,91.59
2022-12-01T16:26:32.743Z,91.45
2022-12-01T16:28:59.423Z,91.66
2022-12-01T16:31:26.993Z,91.91
2022-12-01T16:34:13.750Z,91.62
2022-12-01T16:36:45.498Z,91.68
2022-12-01T16:39:13.938Z,91.83
2022-12-01T16:41:44.465Z,91.91
2022-12-01T16:44:27.991Z,92.23
2022-12-01T16:46:55.758Z,92.05
2022-12-01T16:49:22.563Z,92.19
2022-12-01T16:51:56.030Z,92.08
2022-12-01T16:54:23.632Z,92.17
2022-12-01T16:56:50.975Z,91.74
2022-12-01T16:59:17.504Z,91.88
2022-12-01T17:01:44.088Z,91.74
2022-12-01T17:04:10.651Z,91.25
2022-12-01T17:06:38.399Z,90.57
2022-12-01T17:09:05.329Z,91.36
2022-12-01T17:11:32.416Z,90.42
2022-12-01T17:13:59.026Z,90.58
2022-12-01T17:16:25.619Z,90.40
2022-12-01T17:18:52.228Z,90.66
2022-12-01T17:21:18.825Z,90.33
2022-12-01T17:23:45.526Z,90.08
2022-12-01T17:26:18.641Z,89.69
2022-12-01T17:28:45.216Z,89.76
2022-12-01T17:31:12.283Z,88.78
2022-12-01T17:33:39.224Z,89.08
2022-12-01T17:36:11.839Z,88.83
2022-12-01T17:38:40.353Z,87.72
2022-12-01T17:41:12.390Z,88.22
2022-12-01T17:43:39.651Z,88.39
2022-12-01T17:46:08.284Z,85.67
2022-12-01T17:48:37.074Z,86.50
2022-12-01T17:51:04.077Z,87.29
2022-12-01T17:53:30.709Z,86.29
2022-12-01T17:55:57.248Z,86.85
2022-12-01T17:58:23.909Z,85.18
2022-12-01T18:00:51.971Z,85.59
2022-12-01T18:03:19.750Z,84.80
2022-12-01T18:05:55.083Z,85.64
2022-12-01T18:08:21.825Z,84.85
2022-12-01T18:10:48.297Z,86.27
2022-12-01T18:13:14.814Z,86.16
2022-12-01T18:15:41.439Z,86.17
2022-12-01T18:18:07.966Z,86.50
2022-12-01T18:20:34.467Z,86.38
2022-12-01T18:23:00.937Z,85.32
2022-12-01T18:25:27.439Z,84.61
2022-12-01T18:27:58.308Z,85.67
2022-12-01T18:30:24.854Z,84.49
2022-12-01T18:32:51.412Z,86.13
2022-12-01T18:35:17.974Z,85.48
2022-12-01T18:37:44.443Z,85.59
2022-12-01T18:40:11.738Z,86.02
2022-12-01T18:42:38.278Z,86.36
2022-12-01T18:45:05.118Z,86.40
2022-12-01T18:47:31.684Z,86.74
2022-12-01T18:49:58.248Z,87.05
2022-12-01T18:52:24.809Z,86.99
2022-12-01T18:54:51.656Z,86.66
2022-12-01T18:57:19.027Z,87.02
2022-12-01T18:59:45.855Z,86.73
2022-12-01T19:02:12.517Z,87.16
2022-12-01T19:04:39.079Z,86.78
2022-12-01T19:07:05.567Z,87.06
2022-12-01T19:09:32.072Z,87.28
2022-12-01T19:12:00.226Z,86.77
2022-12-01T19:14:28.551Z,86.10
2022-12-01T19:16:55.658Z,86.19
2022-12-01T19:19:22.463Z,86.83
2022-12-01T19:21:50.359Z,86.74
2022-12-01T19:24:16.895Z,86.53
2022-12-01T19:26:43.403Z,86.89
2022-12-01T19:29:10.064Z,87.36
2022-12-01T19:31:36.609Z,87.55
2022-12-01T19:34:04.196Z,87.88
2022-12-01T19:36:30.901Z,87.97
2022-12-01T19:39:00.158Z,88.02
2022-12-01T19:41:27.456Z,88.36
2022-12-01T19:43:55.128Z,88.53
2022-12-01T19:46:23.852Z,88.58
2022-12-01T19:48:56.276Z,88.66
2022-12-01T19:51:29.989Z,88.14
2022-12-01T19:53:56.910Z,88.05
2022-12-01T19:56:24.676Z,88.52
2022-12-01T19:58:58.815Z,88.55
2022-12-01T20:01:26.408Z,88.30
2022-12-01T20:03:54.116Z,88.64
2022-12-01T20:06:26.594Z,88.60
2022-12-01T20:08:55.687Z,88.37
2022-12-01T20:11:22.910Z,88.16
2022-12-01T20:13:49.530Z,88.21
2022-12-01T20:16:18.674Z,87.45
2022-12-01T20:18:45.999Z,87.62
2022-12-01T20:21:17.461Z,87.65
2022-12-01T20:23:45.989Z,87.41
2022-12-01T20:26:13.595Z,87.07
2022-12-01T20:28:41.529Z,87.03
2022-12-01T20:31:11.752Z,87.01
2022-12-01T20:33:38.990Z,87.46
2022-12-01T20:36:06.506Z,87.46
2022-12-01T20:38:33.651Z,87.31
2022-12-01T20:41:00.137Z,87.66
2022-12-01T20:43:26.667Z,87.00
2022-12-01T20:45:53.232Z,86.77
2022-12-01T20:48:19.841Z,86.78
2022-12-01T20:50:46.590Z,86.67
2022-12-01T20:53:13.714Z,86.80
2022-12-01T20:55:40.438Z,86.77
2022-12-01T20:58:08.872Z,86.66
2022-12-01T21:00:38.510Z,86.54
2022-12-01T21:03:05.939Z,86.29
2022-12-01T21:05:33.214Z,86.46
2022-12-01T21:08:01.428Z,85.38
2022-12-01T21:10:28.193Z,85.18
2022-12-01T21:13:18.702Z,85.09
2022-12-01T21:16:01.825Z,84.98
2022-12-01T21:18:40.844Z,85.46
2022-12-01T21:21:27.580Z,85.15
2022-12-01T21:24:17.185Z,84.72
2022-12-01T21:26:57.724Z,85.12
2022-12-01T21:29:26.729Z,85.29
2022-12-01T21:32:00.336Z,85.03
2022-12-01T21:34:28.713Z,85.24
2022-12-01T21:36:59.059Z,85.60
2022-12-01T21:39:26.584Z,85.80
2022-12-01T21:41:56.889Z,85.35
2022-12-01T21:44:36.039Z,85.31
2022-12-01T21:47:21.849Z,85.35
2022-12-01T21:49:52.269Z,85.81
2022-12-01T21:52:27.181Z,86.57
2022-12-01T21:54:54.623Z,86.51
2022-12-01T21:57:43.099Z,86.18
2022-12-01T22:00:30.315Z,86.02
2022-12-01T22:03:08.149Z,86.11
2022-12-01T22:05:52.320Z,85.90
2022-12-01T22:08:34.299Z,86.52
2022-12-01T22:11:18.755Z,86.11
2022-12-01T22:13:49.831Z,85.78
2022-12-01T22:16:26.007Z,85.86
2022-12-01T22:18:55.126Z,85.97
2022-12-01T22:21:21.649Z,86.40
2022-12-01T22:23:59.652Z,86.41
2022-12-01T22:26:26.463Z,86.48
2022-12-01T22:28:56.937Z,87.00
2022-12-01T22:31:25.897Z,86.31
2022-12-01T22:34:01.495Z,86.65
2022-12-01T22:36:33.326Z,86.55
2022-12-01T22:39:00.182Z,86.45
2022-12-01T22:41:28.825Z,86.26
2022-12-01T22:43:56.724Z,86.84
2022-12-01T22:46:31.114Z,87.09
2022-12-01T22:49:19.394Z,86.84
2022-12-01T22:51:50.869Z,86.50
2022-12-01T22:54:17.724Z,85.63
2022-12-01T22:56:47.534Z,86.44
2022-12-01T22:59:27.748Z,85.57
2022-12-01T23:02:00.033Z,85.61
2022-12-01T23:04:31.193Z,85.79
2022-12-01T23:06:59.239Z,86.18
2022-12-01T23:09:36.057Z,86.25
2022-12-01T23:12:11.503Z,86.16
2022-12-01T23:15:00.623Z,86.06
2022-12-01T23:17:32.886Z,85.90
2022-12-01T23:20:11.684Z,86.34
2022-12-01T23:22:38.770Z,86.40
2022-12-01T23:25:17.377Z,86.26
2022-12-01T23:27:46.673Z,86.65
2022-12-01T23:30:14.980Z,85.86
2022-12-01T23:32:41.805Z,85.94
2022-12-01T23:35:15.013Z,85.91
2022-12-01T23:37:43.666Z,85.78
2022-12-01T23:40:33.203Z,85.12
2022-12-01T23:43:19.166Z,85.51
2022-12-01T23:45:46.716Z,85.37
2022-12-01T23:48:21.851Z,85.78
2022-12-01T23:50:52.572Z,85.70
2022-12-01T23:53:29.125Z,85.79
2022-12-01T23:55:59.019Z,86.10
2022-12-01T23:58:25.551Z,85.96
